Time;durP1;ratioP1;P1;durP2;ratioP2;P2;SDS_P1;SDS_P2;PMS_P1;PMS_P2;Temp;Humidity;BMP_temperature;BMP_pressure;BME280_temperature;BME280_humidity;BME280_pressure;Samples;Min_cycle;Max_cycle;Signal;HPM_P1;HPM_P2
2023/04/02 00:02:16;;;;;;;40.63;21.52;;;;;;;;;;6287844;28;20013;-83
2023/04/02 00:05:29;;;;;;;38.22;22.58;;;;;;;;;;6283263;28;20033;-84
2023/04/02 00:08:39;;;;;;;42.20;22.25;;;;;;;;;;6294501;28;20019;-83
2023/04/02 00:11:41;;;;;;;33.50;18.95;;;;;;;;;;6285315;28;20025;-84
2023/04/02 00:14:45;;;;;;;38.88;20.02;;;;;;;;;;6290423;28;20540;-84
2023/04/02 00:17:45;;;;;;;42.15;22.25;;;;;;;;;;6290409;28;20100;-84
2023/04/02 00:20:53;;;;;;;41.50;22.57;;;;;;;;;;6292456;28;20085;-84
2023/04/02 00:23:54;;;;;;;41.25;21.67;;;;;;;;;;6289321;28;20035;-84
2023/04/02 00:26:55;;;;;;;40.50;21.70;;;;;;;;;;6268310;28;20503;-83
2023/04/02 00:29:56;;;;;;;44.10;24.30;;;;;;;;;;6291435;28;20343;-85
2023/04/02 00:32:56;;;;;;;46.27;25.87;;;;;;;;;;6293749;28;20024;-88
2023/04/02 00:35:56;;;;;;;42.27;23.50;;;;;;;;;;6293062;28;20099;-88
2023/04/02 00:38:57;;;;;;;43.00;24.10;;;;;;;;;;6290003;28;20489;-88
2023/04/02 00:42:03;;;;;;;39.10;21.77;;;;;;;;;;6292033;28;20038;-82
2023/04/02 00:45:04;;;;;;;43.35;23.23;;;;;;;;;;6290286;28;20031;-87
2023/04/02 00:48:19;;;;;;;40.17;22.10;;;;;;;;;;6293273;28;20028;-86
2023/04/02 00:51:20;;;;;;;45.45;22.55;;;;;;;;;;6288723;28;20023;-88
2023/04/02 00:54:21;;;;;;;43.33;22.45;;;;;;;;;;6277218;28;20024;-87
2023/04/02 00:57:25;;;;;;;;;;;;;;;;;;6284867;28;20032;-85
2023/04/02 01:00:34;;;;;;;41.67;21.20;;;;;;;;;;6291537;28;20343;-84
2023/04/02 01:03:35;;;;;;;39.13;20.25;;;;;;;;;;6287873;28;20618;-84
2023/04/02 01:06:36;;;;;;;49.07;24.00;;;;;;;;;;6293279;28;20016;-84
2023/04/02 01:09:39;;;;;;;49.80;25.98;;;;;;;;;;6294194;28;20128;-86
2023/04/02 01:12:46;;;;;;;49.60;23.70;;;;;;;;;;6279938;28;20021;-87
2023/04/02 01:16:07;;;;;;;49.35;22.98;;;;;;;;;;6283149;28;20025;-87
2023/04/02 01:19:08;;;;;;;43.05;22.13;;;;;;;;;;6284690;28;20112;-87
2023/04/02 01:22:17;;;;;;;42.25;21.83;;;;;;;;;;6296728;28;20025;-89
2023/04/02 01:25:21;;;;;;;39.63;20.92;;;;;;;;;;6294201;28;20040;-87
2023/04/02 01:28:28;;;;;;;40.55;22.08;;;;;;;;;;6293757;28;20017;-88
2023/04/02 01:31:29;;;;;;;39.33;20.65;;;;;;;;;;6287099;28;20019;-88
2023/04/02 01:34:32;;;;;;;39.20;23.37;;;;;;;;;;6276516;28;20013;-82
2023/04/02 01:37:43;;;;;;;40.47;19.60;;;;;;;;;;6294013;28;20266;-85
2023/04/02 01:40:46;;;;;;;42.58;20.63;;;;;;;;;;6294053;28;20063;-88
2023/04/02 01:43:50;;;;;;;39.75;20.38;;;;;;;;;;6294592;28;20024;-85
2023/04/02 01:46:51;;;;;;;40.20;18.92;;;;;;;;;;6288087;28;20043;-85
2023/04/02 01:50:11;;;;;;;35.87;19.17;;;;;;;;;;6290788;28;20021;-85
2023/04/02 01:53:13;;;;;;;32.58;16.40;;;;;;;;;;6291183;28;20020;-85
2023/04/02 01:56:13;;;;;;;37.40;18.98;;;;;;;;;;6293163;28;20032;-85
2023/04/02 01:59:19;;;;;;;36.63;19.07;;;;;;;;;;6286802;28;20028;-86
2023/04/02 02:02:20;;;;;;;36.75;18.70;;;;;;;;;;6289561;28;20024;-86
2023/04/02 02:05:22;;;;;;;32.95;17.20;;;;;;;;;;6295085;28;20487;-85
2023/04/02 02:08:41;;;;;;;31.23;17.67;;;;;;;;;;6287323;28;20022;-87
2023/04/02 02:11:41;;;;;;;31.85;17.77;;;;;;;;;;6291680;28;20021;-86
2023/04/02 02:14:45;;;;;;;43.47;19.43;;;;;;;;;;6289622;28;20035;-88
2023/04/02 02:17:46;;;;;;;37.45;19.75;;;;;;;;;;6271943;28;20059;-86
2023/04/02 02:20:46;;;;;;;30.67;16.13;;;;;;;;;;6288151;28;20021;-87
2023/04/02 02:23:47;;;;;;;35.83;19.67;;;;;;;;;;6289020;28;20024;-88
2023/04/02 02:26:49;;;;;;;37.70;18.10;;;;;;;;;;6292253;28;20045;-86
2023/04/02 02:29:56;;;;;;;37.88;19.25;;;;;;;;;;6287221;28;20064;-86
2023/04/02 02:33:06;;;;;;;32.75;16.83;;;;;;;;;;6288244;28;20564;-86
2023/04/02 02:36:09;;;;;;;32.78;17.88;;;;;;;;;;6308080;28;20012;-83
2023/04/02 02:39:15;;;;;;;29.98;16.67;;;;;;;;;;6316983;28;20019;-86
2023/04/02 02:42:23;;;;;;;34.35;17.65;;;;;;;;;;6312700;28;20028;-87
2023/04/02 02:45:25;;;;;;;36.47;20.25;;;;;;;;;;6292033;28;20151;-88
2023/04/02 02:48:31;;;;;;;32.78;18.20;;;;;;;;;;6298039;28;20029;-87
2023/04/02 02:51:41;;;;;;;32.33;19.80;;;;;;;;;;6292066;28;20725;-83
2023/04/02 02:54:44;;;;;;;28.08;16.83;;;;;;;;;;6301697;28;20063;-86
2023/04/02 02:57:49;;;;;;;31.08;18.42;;;;;;;;;;6323897;28;20029;-88
2023/04/02 03:00:49;;;;;;;30.13;17.02;;;;;;;;;;6309842;28;20094;-87
2023/04/02 03:03:51;;;;;;;33.40;17.40;;;;;;;;;;6322970;28;20012;-90
2023/04/02 03:06:52;;;;;;;28.90;18.02;;;;;;;;;;6299054;28;20433;-90
2023/04/02 03:09:57;;;;;;;27.07;15.47;;;;;;;;;;6297556;28;20086;-90
2023/04/02 03:13:01;;;;;;;30.90;16.45;;;;;;;;;;6287348;28;20111;-90
2023/04/02 03:16:10;;;;;;;28.75;15.48;;;;;;;;;;6296720;28;20025;-91
2023/04/02 03:19:16;;;;;;;30.08;16.27;;;;;;;;;;6298594;28;20033;-90
2023/04/02 03:22:34;;;;;;;31.50;17.38;;;;;;;;;;6300643;28;20035;-87
2023/04/02 03:25:40;;;;;;;31.08;16.80;;;;;;;;;;6278349;28;20044;-86
2023/04/02 03:28:42;;;;;;;31.17;18.48;;;;;;;;;;6297982;28;20032;-90
2023/04/02 03:32:01;;;;;;;45.20;22.20;;;;;;;;;;6295423;28;20028;-89
2023/04/02 03:35:07;;;;;;;43.70;20.95;;;;;;;;;;6301842;28;20020;-89
2023/04/02 03:38:21;;;;;;;38.20;20.83;;;;;;;;;;6303108;28;20017;-89
2023/04/02 03:41:30;;;;;;;39.00;19.63;;;;;;;;;;6296450;28;20025;-89
2023/04/02 03:44:37;;;;;;;35.85;18.65;;;;;;;;;;6301728;28;20463;-90
2023/04/02 03:47:46;;;;;;;30.70;18.40;;;;;;;;;;6300862;28;20818;-89
2023/04/02 03:50:53;;;;;;;30.90;17.42;;;;;;;;;;6309595;28;20032;-83
2023/04/02 03:53:53;;;;;;;32.95;18.05;;;;;;;;;;6312198;28;20020;-88
2023/04/02 03:56:53;;;;;;;33.87;17.03;;;;;;;;;;6306137;28;20028;-89
2023/04/02 04:00:00;;;;;;;30.30;17.27;;;;;;;;;;6309569;28;20047;-88
2023/04/02 04:03:15;;;;;;;34.80;19.08;;;;;;;;;;6307628;28;20058;-88
2023/04/02 04:06:22;;;;;;;33.60;19.23;;;;;;;;;;6306183;28;20052;-87
2023/04/02 04:09:31;;;;;;;33.90;18.23;;;;;;;;;;6305350;28;20086;-88
2023/04/02 04:12:34;;;;;;;41.70;20.95;;;;;;;;;;6305045;28;20020;-87
2023/04/02 04:15:45;;;;;;;33.72;18.35;;;;;;;;;;6302208;28;20045;-87
2023/04/02 04:18:46;;;;;;;39.17;20.00;;;;;;;;;;6295254;28;20052;-86
2023/04/02 04:21:46;;;;;;;34.53;18.83;;;;;;;;;;6297813;28;20035;-86
2023/04/02 04:24:47;;;;;;;24.03;12.30;;;;;;;;;;6298412;28;20355;-86
2023/04/02 04:27:57;;;;;;;33.23;16.93;;;;;;;;;;6292353;28;20609;-86
2023/04/02 04:30:59;;;;;;;32.20;16.98;;;;;;;;;;6280307;28;20034;-86
2023/04/02 04:34:04;;;;;;;29.05;15.40;;;;;;;;;;6280135;28;20119;-86
2023/04/02 04:37:06;;;;;;;33.08;18.13;;;;;;;;;;6297608;28;20036;-85
2023/04/02 04:40:10;;;;;;;27.35;14.90;;;;;;;;;;6293691;28;20043;-86
2023/04/02 04:43:17;;;;;;;31.25;18.67;;;;;;;;;;6291907;28;20033;-86
2023/04/02 04:46:34;;;;;;;32.42;16.05;;;;;;;;;;6291868;28;20032;-86
2023/04/02 04:49:37;;;;;;;32.67;17.55;;;;;;;;;;6277451;28;20032;-85
2023/04/02 04:52:38;;;;;;;31.75;19.08;;;;;;;;;;6290565;28;20043;-85
2023/04/02 04:55:41;;;;;;;31.63;17.85;;;;;;;;;;6298947;28;20310;-84
2023/04/02 04:58:47;;;;;;;32.28;16.92;;;;;;;;;;6293987;28;20115;-86
2023/04/02 05:01:56;;;;;;;36.65;18.40;;;;;;;;;;6291685;28;20028;-86
2023/04/02 05:04:57;;;;;;;33.08;17.08;;;;;;;;;;6291524;28;20023;-85
2023/04/02 05:07:59;;;;;;;40.67;20.23;;;;;;;;;;6298429;28;20438;-85
2023/04/02 05:11:02;;;;;;;39.72;20.73;;;;;;;;;;6291650;28;20104;-86
2023/04/02 05:14:05;;;;;;;41.20;21.13;;;;;;;;;;6300818;28;20490;-87
2023/04/02 05:48:16;;;;;;;15.88;9.57;;;;;;;;;;7626821;22;20008;-87
2023/04/02 05:51:18;;;;;;;19.52;10.70;;;;;;;;;;6289642;28;20040;-83
2023/04/02 05:54:22;;;;;;;16.45;8.48;;;;;;;;;;6287598;28;20482;-82
2023/04/02 05:57:26;;;;;;;10.95;5.88;;;;;;;;;;6289454;28;20080;-81
2023/04/02 06:00:41;;;;;;;12.52;6.68;;;;;;;;;;6287530;28;20059;-80
2023/04/02 06:03:44;;;;;;;8.48;4.60;;;;;;;;;;6287360;28;20387;-80
2023/04/02 06:06:47;;;;;;;7.53;4.47;;;;;;;;;;6285171;28;20060;-80
2023/04/02 06:09:51;;;;;;;8.57;4.45;;;;;;;;;;6268489;28;20032;-81
2023/04/02 06:12:51;;;;;;;8.75;4.20;;;;;;;;;;6253689;28;20021;-79
2023/04/02 06:15:52;;;;;;;10.23;5.63;;;;;;;;;;6269061;28;20571;-79
2023/04/02 06:18:52;;;;;;;12.30;5.67;;;;;;;;;;6271868;28;20390;-80
2023/04/02 06:21:58;;;;;;;11.90;4.07;;;;;;;;;;6271773;28;20032;-79
2023/04/02 06:25:01;;;;;;;9.27;4.78;;;;;;;;;;6272129;28;20032;-80
2023/04/02 06:28:04;;;;;;;7.45;4.13;;;;;;;;;;6265375;28;20029;-79
2023/04/02 06:31:06;;;;;;;8.40;4.90;;;;;;;;;;6267952;28;20533;-81
2023/04/02 06:34:12;;;;;;;9.73;5.03;;;;;;;;;;6267572;28;20051;-79
2023/04/02 06:37:19;;;;;;;11.10;5.38;;;;;;;;;;6264220;28;20057;-81
2023/04/02 06:40:23;;;;;;;8.55;4.15;;;;;;;;;;6271510;28;20033;-81
2023/04/02 06:43:31;;;;;;;7.55;3.92;;;;;;;;;;6267216;28;20033;-81
2023/04/02 06:46:44;;;;;;;9.43;3.78;;;;;;;;;;6271149;28;20020;-80
2023/04/02 06:49:44;;;;;;;;;;;;;;;;;;6268524;28;20063;-78
2023/04/02 06:52:46;;;;;;;6.40;3.10;;;;;;;;;;6267689;28;19912;-78
2023/04/02 06:55:46;;;;;;;;;;;;;;;;;;6265782;28;20029;-79
2023/04/02 06:58:47;;;;;;;4.35;2.75;;;;;;;;;;6267312;28;19931;-78
2023/04/02 07:01:50;;;;;;;6.60;2.77;;;;;;;;;;6267935;28;20029;-78
2023/04/02 07:04:50;;;;;;;5.53;3.08;;;;;;;;;;6271136;28;20037;-78
2023/04/02 07:07:52;;;;;;;6.57;3.03;;;;;;;;;;6270007;28;20036;-79
2023/04/02 07:10:52;;;;;;;9.13;3.28;;;;;;;;;;6267190;28;20139;-79
2023/04/02 07:13:52;;;;;;;6.60;2.73;;;;;;;;;;6266006;28;20025;-78
2023/04/02 07:16:52;;;;;;;8.95;3.17;;;;;;;;;;6262148;28;20679;-80
2023/04/02 07:19:52;;;;;;;11.30;4.80;;;;;;;;;;6263075;28;20112;-78
2023/04/02 07:22:53;;;;;;;1999.90;999.90;;;;;;;;;;6264646;28;20028;-79
2023/04/02 07:25:54;;;;;;;1999.90;999.90;;;;;;;;;;6248326;28;20367;-80
2023/04/02 07:28:55;;;;;;;1999.90;999.90;;;;;;;;;;6267620;28;20021;-79
2023/04/02 07:31:55;;;;;;;1999.90;999.90;;;;;;;;;;6270711;28;20036;-79
2023/04/02 07:34:55;;;;;;;1999.90;999.90;;;;;;;;;;6263018;28;20655;-79
2023/04/02 07:37:56;;;;;;;1999.90;999.90;;;;;;;;;;6251005;28;20500;-77
2023/04/02 07:40:56;;;;;;;1999.90;999.90;;;;;;;;;;6264431;28;20017;-78
2023/04/02 07:43:56;;;;;;;1999.90;999.90;;;;;;;;;;6266371;28;20033;-78
2023/04/02 07:46:56;;;;;;;1987.03;999.90;;;;;;;;;;6251996;28;20554;-79
2023/04/02 07:49:56;;;;;;;1999.90;999.90;;;;;;;;;;6265883;28;20040;-80
2023/04/02 07:52:57;;;;;;;1652.00;999.90;;;;;;;;;;6263919;28;20036;-79
2023/04/02 07:55:58;;;;;;;1464.50;999.90;;;;;;;;;;6268186;28;20035;-79
2023/04/02 07:58:58;;;;;;;1227.53;999.90;;;;;;;;;;6250613;28;20028;-80
2023/04/02 08:01:58;;;;;;;1203.40;923.03;;;;;;;;;;6262998;28;20495;-80
2023/04/02 08:04:59;;;;;;;1630.43;799.22;;;;;;;;;;6265927;28;20056;-78
2023/04/02 08:07:59;;;;;;;1425.33;794.90;;;;;;;;;;6261959;28;20466;-78
2023/04/02 08:10:59;;;;;;;787.47;705.40;;;;;;;;;;6262394;28;20047;-78
2023/04/02 08:14:00;;;;;;;672.13;646.80;;;;;;;;;;6262856;28;20021;-79
2023/04/02 08:17:00;;;;;;;569.00;551.93;;;;;;;;;;6247689;28;20791;-80
2023/04/02 08:20:00;;;;;;;531.53;515.07;;;;;;;;;;6262776;28;20025;-80
2023/04/02 08:23:01;;;;;;;462.67;448.47;;;;;;;;;;6249094;28;20103;-80
2023/04/02 08:26:02;;;;;;;435.10;421.80;;;;;;;;;;6265420;28;20021;-80
2023/04/02 08:29:02;;;;;;;1999.90;487.33;;;;;;;;;;6260014;28;20056;-80
2023/04/02 08:32:03;;;;;;;1949.30;435.10;;;;;;;;;;6246285;28;20049;-79
2023/04/02 08:35:03;;;;;;;327.00;316.47;;;;;;;;;;6266246;28;20021;-79
2023/04/02 08:38:04;;;;;;;310.00;300.40;;;;;;;;;;6266095;28;20464;-79
2023/04/02 08:41:05;;;;;;;270.00;261.23;;;;;;;;;;6266766;28;20021;-79
2023/04/02 08:44:24;;;;;;;261.93;253.43;;;;;;;;;;6262709;28;20086;-78
2023/04/02 08:47:24;;;;;;;251.65;242.38;;;;;;;;;;6263441;28;20490;-78
2023/04/02 08:50:27;;;;;;;228.80;220.83;;;;;;;;;;6265554;28;20519;-78
2023/04/02 08:53:30;;;;;;;180.32;173.82;;;;;;;;;;6261582;28;20056;-78
2023/04/02 08:56:30;;;;;;;174.32;167.93;;;;;;;;;;6262990;28;20022;-79
2023/04/02 08:59:34;;;;;;;169.10;162.90;;;;;;;;;;6266343;28;20031;-79
2023/04/02 09:02:44;;;;;;;582.53;201.25;;;;;;;;;;6262431;28;20033;-80
2023/04/02 09:05:46;;;;;;;135.32;130.00;;;;;;;;;;6266577;28;20061;-81
2023/04/02 09:08:47;;;;;;;125.88;121.03;;;;;;;;;;6267381;28;20495;-80
2023/04/02 09:12:00;;;;;;;120.15;115.25;;;;;;;;;;6233460;28;20029;-81
2023/04/02 09:15:03;;;;;;;114.70;109.95;;;;;;;;;;6265881;28;20115;-81
2023/04/02 09:18:10;;;;;;;118.32;112.95;;;;;;;;;;6248267;28;20035;-82
2023/04/02 09:21:29;;;;;;;111.05;106.03;;;;;;;;;;6269549;28;20079;-78
2023/04/02 09:24:29;;;;;;;92.68;88.50;;;;;;;;;;6261521;28;20065;-80
2023/04/02 09:27:32;;;;;;;67.28;63.53;;;;;;;;;;6249915;28;20533;-81
2023/04/02 09:30:53;;;;;;;49.88;46.92;;;;;;;;;;6265975;28;20025;-81
2023/04/02 09:33:53;;;;;;;55.75;52.45;;;;;;;;;;6271205;28;20509;-80
2023/04/02 09:36:54;;;;;;;43.17;40.60;;;;;;;;;;6251010;28;20028;-81
2023/04/02 09:40:08;;;;;;;36.80;34.57;;;;;;;;;;6272804;28;20070;-81
2023/04/02 09:43:15;;;;;;;1999.90;274.48;;;;;;;;;;6271263;28;20098;-78
2023/04/02 09:46:22;;;;;;;1999.90;353.10;;;;;;;;;;6274492;28;20562;-81
2023/04/02 09:49:23;;;;;;;43.30;38.70;;;;;;;;;;6276904;28;20146;-81
2023/04/02 09:52:27;;;;;;;41.20;37.85;;;;;;;;;;6272438;28;20554;-81
2023/04/02 09:55:29;;;;;;;111.22;105.90;;;;;;;;;;6271218;28;20034;-82
2023/04/02 09:58:30;;;;;;;;;;;;;;;;;;6272840;28;20021;-81
2023/04/02 10:01:37;;;;;;;54.42;51.30;;;;;;;;;;6250773;28;19982;-81
2023/04/02 10:04:46;;;;;;;68.70;65.50;;;;;;;;;;6265890;28;20028;-82
2023/04/02 10:07:47;;;;;;;65.88;62.67;;;;;;;;;;6255744;28;20051;-82
2023/04/02 10:10:49;;;;;;;67.03;63.80;;;;;;;;;;6262654;28;20020;-83
2023/04/02 10:13:57;;;;;;;68.75;65.43;;;;;;;;;;6283089;28;20073;-80
2023/04/02 10:17:04;;;;;;;67.95;64.45;;;;;;;;;;6271586;28;20068;-83
2023/04/02 10:20:17;;;;;;;60.22;56.25;;;;;;;;;;6279490;28;20079;-82
2023/04/02 10:23:18;;;;;;;51.10;48.20;;;;;;;;;;6276820;28;20179;-82
2023/04/02 10:26:42;;;;;;;46.27;43.53;;;;;;;;;;6271109;28;20039;-81
2023/04/02 10:29:42;;;;;;;47.20;44.40;;;;;;;;;;6266667;28;20120;-81
2023/04/02 10:32:42;;;;;;;48.60;45.80;;;;;;;;;;6265992;28;20021;-81
2023/04/02 10:35:53;;;;;;;45.40;42.33;;;;;;;;;;6265710;28;20025;-81
2023/04/02 10:39:10;;;;;;;53.30;49.05;;;;;;;;;;6267049;28;20073;-82
2023/04/02 10:42:17;;;;;;;56.83;53.03;;;;;;;;;;6270103;28;20029;-82
2023/04/02 10:45:23;;;;;;;52.05;48.65;;;;;;;;;;6268903;28;20067;-82
2023/04/02 10:48:39;;;;;;;46.45;43.45;;;;;;;;;;6264565;28;20116;-83
2023/04/02 10:51:45;;;;;;;40.90;38.10;;;;;;;;;;6272213;28;20028;-85
2023/04/02 10:54:49;;;;;;;39.47;36.97;;;;;;;;;;6270827;28;20378;-83
2023/04/02 10:57:51;;;;;;;61.58;57.38;;;;;;;;;;6261300;28;20036;-84
2023/04/02 11:00:51;;;;;;;;;;;;;;;;;;6259784;28;20028;-85
2023/04/02 11:03:57;;;;;;;47.97;45.17;;;;;;;;;;6285783;28;19908;-84
2023/04/02 11:07:00;;;;;;;42.35;39.85;;;;;;;;;;6267311;28;20503;-84
2023/04/02 11:10:00;;;;;;;46.03;43.50;;;;;;;;;;6292429;28;20047;-85
2023/04/02 11:13:12;;;;;;;32.57;30.60;;;;;;;;;;6288347;28;20446;-82
2023/04/02 11:16:15;;;;;;;22.80;20.85;;;;;;;;;;6267076;28;20017;-85
2023/04/02 11:19:15;;;;;;;26.90;25.00;;;;;;;;;;6265735;28;20017;-83
2023/04/02 11:22:18;;;;;;;22.83;21.08;;;;;;;;;;6285785;28;20540;-86
2023/04/02 11:25:20;;;;;;;28.63;26.88;;;;;;;;;;6281250;28;20421;-85
2023/04/02 11:28:28;;;;;;;39.67;37.40;;;;;;;;;;6263601;28;20044;-85
2023/04/02 11:31:29;;;;;;;36.08;34.08;;;;;;;;;;6283794;28;20024;-86
2023/04/02 11:34:41;;;;;;;36.03;33.93;;;;;;;;;;6285781;28;20021;-85
2023/04/02 11:37:43;;;;;;;35.35;33.05;;;;;;;;;;6282424;28;20086;-85
2023/04/02 11:40:43;;;;;;;30.00;28.10;;;;;;;;;;6262522;28;20024;-84
2023/04/02 11:43:48;;;;;;;28.27;26.23;;;;;;;;;;6266390;28;20029;-85
2023/04/02 11:46:48;;;;;;;29.23;27.02;;;;;;;;;;6274623;28;20047;-86
2023/04/02 11:49:51;;;;;;;31.67;29.27;;;;;;;;;;6282608;28;20041;-84
2023/04/02 11:52:52;;;;;;;41.30;37.10;;;;;;;;;;6280876;28;20103;-85
2023/04/02 11:55:52;;;;;;;32.73;29.37;;;;;;;;;;6281928;28;20035;-85
2023/04/02 11:59:05;;;;;;;30.35;27.08;;;;;;;;;;6261704;28;20044;-85
2023/04/02 12:02:44;;;;;;;25.33;22.60;;;;;;;;;;6257948;28;20115;-86
2023/04/02 12:05:57;;;;;;;23.17;20.95;;;;;;;;;;6217145;28;20542;-85
2023/04/02 12:08:57;;;;;;;43.20;38.83;;;;;;;;;;6222730;28;20129;-84
2023/04/02 12:11:59;;;;;;;28.95;25.80;;;;;;;;;;6272552;28;20023;-83
2023/04/02 12:14:59;;;;;;;34.38;31.42;;;;;;;;;;6276682;28;20031;-84
2023/04/02 12:18:09;;;;;;;17.43;15.63;;;;;;;;;;6255320;28;20028;-85
2023/04/02 12:21:14;;;;;;;24.70;22.30;;;;;;;;;;6266266;28;20033;-84
2023/04/02 12:24:18;;;;;;;26.08;23.85;;;;;;;;;;6270859;28;20087;-84
2023/04/02 12:27:21;;;;;;;29.30;26.90;;;;;;;;;;6254980;28;20029;-84
2023/04/02 12:30:22;;;;;;;21.48;19.67;;;;;;;;;;6274264;28;20043;-84
2023/04/02 12:33:26;;;;;;;30.37;27.60;;;;;;;;;;6270494;28;20040;-84
2023/04/02 12:36:26;;;;;;;49.50;40.47;;;;;;;;;;6271488;28;20025;-85
2023/04/02 12:39:27;;;;;;;24.87;22.37;;;;;;;;;;6268030;28;20130;-84
2023/04/02 12:42:30;;;;;;;21.03;18.93;;;;;;;;;;6263249;28;20037;-83
2023/04/02 12:45:32;;;;;;;19.75;17.95;;;;;;;;;;6254889;28;20479;-83
2023/04/02 12:48:33;;;;;;;42.35;27.40;;;;;;;;;;6267137;28;20527;-84
2023/04/02 12:51:37;;;;;;;37.53;26.52;;;;;;;;;;6250147;28;20064;-82
2023/04/02 12:54:44;;;;;;;25.50;22.42;;;;;;;;;;6266265;28;20025;-82
2023/04/02 12:57:48;;;;;;;27.83;25.50;;;;;;;;;;6249203;28;20021;-83
2023/04/02 13:00:48;;;;;;;32.63;29.67;;;;;;;;;;6268049;28;20070;-83
2023/04/02 13:04:05;;;;;;;16.60;15.17;;;;;;;;;;6268106;28;20029;-83
2023/04/02 13:07:14;;;;;;;22.67;20.38;;;;;;;;;;6265813;28;20032;-83
2023/04/02 13:10:24;;;;;;;22.85;20.85;;;;;;;;;;6251316;28;20021;-81
2023/04/02 13:13:27;;;;;;;21.30;19.13;;;;;;;;;;6262459;28;20039;-82
2023/04/02 13:16:38;;;;;;;21.67;19.52;;;;;;;;;;6263656;28;20179;-83
2023/04/02 13:19:39;;;;;;;19.73;17.33;;;;;;;;;;6249546;28;20106;-83
2023/04/02 13:22:39;;;;;;;19.23;17.23;;;;;;;;;;6269672;28;20033;-83
2023/04/02 13:25:39;;;;;;;20.10;17.27;;;;;;;;;;6250826;28;20056;-83
2023/04/02 13:28:39;;;;;;;21.23;18.97;;;;;;;;;;6266154;28;20063;-82
2023/04/02 13:31:40;;;;;;;28.00;25.23;;;;;;;;;;6269939;28;20016;-84
2023/04/02 13:34:40;;;;;;;24.07;21.73;;;;;;;;;;6270434;28;20368;-83
2023/04/02 13:37:40;;;;;;;25.23;22.15;;;;;;;;;;6265519;28;20025;-83
2023/04/02 13:40:40;;;;;;;31.50;25.53;;;;;;;;;;6271111;28;20055;-83
2023/04/02 13:43:41;;;;;;;23.02;20.52;;;;;;;;;;6258600;28;20029;-83
2023/04/02 13:46:41;;;;;;;27.10;24.30;;;;;;;;;;6284098;28;20036;-83
2023/04/02 13:49:41;;;;;;;28.02;20.92;;;;;;;;;;6274782;28;20103;-82
2023/04/02 13:52:41;;;;;;;28.60;22.52;;;;;;;;;;6268386;28;20025;-82
2023/04/02 13:55:41;;;;;;;30.13;26.92;;;;;;;;;;6253586;28;20029;-84
2023/04/02 13:58:42;;;;;;;24.07;20.37;;;;;;;;;;6274076;28;20416;-82
2023/04/02 14:01:43;;;;;;;31.20;24.23;;;;;;;;;;6248540;28;20281;-82
2023/04/02 14:04:46;;;;;;;27.52;22.10;;;;;;;;;;6275733;28;20029;-82
2023/04/02 14:07:50;;;;;;;20.10;17.73;;;;;;;;;;6265337;28;20064;-84
2023/04/02 14:11:00;;;;;;;28.77;25.80;;;;;;;;;;6268560;28;20024;-84
2023/04/02 14:14:19;;;;;;;26.25;23.45;;;;;;;;;;6249612;28;20108;-83
2023/04/02 14:17:28;;;;;;;21.40;18.75;;;;;;;;;;6265949;28;20036;-83
2023/04/02 14:20:47;;;;;;;18.08;16.27;;;;;;;;;;6233940;28;20064;-82
2023/04/02 14:24:13;;;;;;;20.67;17.52;;;;;;;;;;6263794;28;20029;-82
2023/04/02 14:27:28;;;;;;;18.25;16.35;;;;;;;;;;6228814;28;20040;-81
2023/04/02 14:30:37;;;;;;;20.88;16.08;;;;;;;;;;6250395;28;20039;-80
2023/04/02 14:33:49;;;;;;;17.50;15.13;;;;;;;;;;6270125;28;20039;-84
2023/04/02 14:36:50;;;;;;;18.92;15.23;;;;;;;;;;6271033;28;20061;-82
2023/04/02 14:40:16;;;;;;;16.03;14.37;;;;;;;;;;6272569;28;20078;-83
2023/04/02 14:43:16;;;;;;;21.50;16.92;;;;;;;;;;6240932;28;20032;-81
2023/04/02 14:46:16;;;;;;;19.15;16.08;;;;;;;;;;6271780;28;20067;-83
2023/04/02 14:49:30;;;;;;;20.67;18.47;;;;;;;;;;6267878;28;20514;-81
2023/04/02 14:52:32;;;;;;;24.77;18.75;;;;;;;;;;6267422;28;20450;-82
2023/04/02 14:55:32;;;;;;;;;;;;;;;;;;6272290;28;20025;-82
2023/04/02 14:58:34;;;;;;;15.10;13.60;;;;;;;;;;6267242;28;20062;-80
2023/04/02 15:01:38;;;;;;;19.30;15.63;;;;;;;;;;6252757;28;20033;-79
2023/04/02 15:04:44;;;;;;;15.52;13.10;;;;;;;;;;6254262;28;20358;-82
2023/04/02 15:07:49;;;;;;;14.68;13.07;;;;;;;;;;6266915;28;20025;-83
2023/04/02 15:11:00;;;;;;;17.02;15.23;;;;;;;;;;6252949;28;20043;-81
2023/04/02 15:14:03;;;;;;;37.78;35.35;;;;;;;;;;6257593;28;20491;-83
2023/04/02 15:17:03;;;;;;;29.00;26.55;;;;;;;;;;6266062;28;20423;-82
2023/04/02 15:20:14;;;;;;;27.30;25.07;;;;;;;;;;6269848;28;20032;-82
2023/04/02 15:23:30;;;;;;;28.65;25.58;;;;;;;;;;6271333;28;20044;-81
2023/04/02 15:26:49;;;;;;;24.77;22.38;;;;;;;;;;6263708;28;20048;-81
2023/04/02 15:30:01;;;;;;;18.80;17.15;;;;;;;;;;6273294;28;20561;-82
2023/04/02 15:33:20;;;;;;;23.83;19.83;;;;;;;;;;6265445;28;20470;-81
2023/04/02 15:36:46;;;;;;;31.02;22.67;;;;;;;;;;6263405;28;20021;-80
2023/04/02 15:39:58;;;;;;;15.10;13.65;;;;;;;;;;6248993;28;20037;-81
2023/04/02 15:42:59;;;;;;;16.83;15.00;;;;;;;;;;6269088;28;20045;-81
2023/04/02 15:46:12;;;;;;;16.80;15.07;;;;;;;;;;6263245;28;20055;-79
2023/04/02 15:49:32;;;;;;;15.68;14.05;;;;;;;;;;6251521;28;20041;-81
2023/04/02 15:52:51;;;;;;;14.02;12.63;;;;;;;;;;6267236;28;20021;-80
2023/04/02 15:56:14;;;;;;;18.00;16.08;;;;;;;;;;6252504;28;20086;-77
2023/04/02 15:59:17;;;;;;;18.90;17.00;;;;;;;;;;6263445;28;20115;-79
2023/04/02 16:02:36;;;;;;;17.13;15.27;;;;;;;;;;6268183;28;20059;-81
2023/04/02 16:05:37;;;;;;;14.98;13.40;;;;;;;;;;6265417;28;20529;-80
2023/04/02 16:08:55;;;;;;;19.45;17.50;;;;;;;;;;6269667;28;20112;-80
2023/04/02 16:12:10;;;;;;;18.85;15.57;;;;;;;;;;6268695;28;20025;-80
2023/04/02 16:15:15;;;;;;;16.92;15.23;;;;;;;;;;6266982;28;20029;-80
2023/04/02 16:18:27;;;;;;;16.15;14.65;;;;;;;;;;6267635;28;20032;-80
2023/04/02 16:21:27;;;;;;;;;;;;;;;;;;6264837;28;20467;-79
2023/04/02 16:24:27;;;;;;;16.73;14.98;;;;;;;;;;6268336;28;19908;-81
2023/04/02 16:27:41;;;;;;;14.43;12.93;;;;;;;;;;6264215;28;20029;-80
2023/04/02 16:31:05;;;;;;;14.32;12.93;;;;;;;;;;6260608;28;20498;-79
2023/04/02 16:34:24;;;;;;;14.90;13.40;;;;;;;;;;6224098;28;20479;-79
2023/04/02 16:37:27;;;;;;;14.57;13.13;;;;;;;;;;6263444;28;20557;-78
2023/04/02 16:40:46;;;;;;;15.70;13.77;;;;;;;;;;6246699;28;20456;-79
2023/04/02 16:43:59;;;;;;;17.15;15.55;;;;;;;;;;6259157;28;20025;-79
2023/04/02 16:47:11;;;;;;;17.38;15.68;;;;;;;;;;6261007;28;20115;-76
2023/04/02 16:50:21;;;;;;;16.15;14.68;;;;;;;;;;6263339;28;20092;-79
2023/04/02 16:53:25;;;;;;;15.85;14.10;;;;;;;;;;6260809;28;20121;-79
2023/04/02 16:56:44;;;;;;;14.35;13.05;;;;;;;;;;6261689;28;20028;-79
2023/04/02 16:59:47;;;;;;;17.20;14.90;;;;;;;;;;6266141;28;20020;-79
2023/04/02 17:02:53;;;;;;;26.75;20.40;;;;;;;;;;6265221;28;20035;-79
2023/04/02 17:05:56;;;;;;;17.42;15.45;;;;;;;;;;6254974;28;20491;-79
2023/04/02 17:09:02;;;;;;;16.38;14.15;;;;;;;;;;6267195;28;20391;-79
2023/04/02 17:12:12;;;;;;;18.65;13.82;;;;;;;;;;6265847;28;20025;-79
2023/04/02 17:15:15;;;;;;;27.55;19.35;;;;;;;;;;6244923;28;20114;-79
2023/04/02 17:18:19;;;;;;;19.20;14.75;;;;;;;;;;6266859;28;20087;-80
2023/04/02 17:21:23;;;;;;;14.65;13.18;;;;;;;;;;6265075;28;20025;-80
2023/04/02 17:24:35;;;;;;;13.50;12.10;;;;;;;;;;6267323;28;20029;-80
2023/04/02 17:27:42;;;;;;;15.35;12.68;;;;;;;;;;6264347;28;20396;-81
2023/04/02 17:30:44;;;;;;;16.52;12.77;;;;;;;;;;6266017;28;20018;-80
2023/04/02 17:33:45;;;;;;;20.55;15.95;;;;;;;;;;6268295;28;20020;-81
2023/04/02 17:36:55;;;;;;;28.27;15.20;;;;;;;;;;6267025;28;20115;-80
2023/04/02 17:40:01;;;;;;;19.70;16.10;;;;;;;;;;6267425;28;20025;-81
2023/04/02 17:43:20;;;;;;;15.57;12.00;;;;;;;;;;6263331;28;20029;-79
2023/04/02 17:46:46;;;;;;;14.38;12.55;;;;;;;;;;6264469;28;20029;-80
2023/04/02 17:49:46;;;;;;;17.50;13.93;;;;;;;;;;6266335;28;20037;-80
2023/04/02 17:52:46;;;;;;;13.57;11.07;;;;;;;;;;6265286;28;20104;-80
2023/04/02 17:56:05;;;;;;;14.63;12.43;;;;;;;;;;6266530;28;20028;-81
2023/04/02 17:59:08;;;;;;;17.13;13.73;;;;;;;;;;6266086;28;20039;-81
2023/04/02 18:02:23;;;;;;;17.25;13.15;;;;;;;;;;6266960;28;20025;-81
2023/04/02 18:05:29;;;;;;;17.15;12.18;;;;;;;;;;6267898;28;20483;-80
2023/04/02 18:08:37;;;;;;;18.23;12.85;;;;;;;;;;6255775;28;20067;-78
2023/04/02 18:11:46;;;;;;;18.38;14.02;;;;;;;;;;6253107;28;20513;-81
2023/04/02 18:14:59;;;;;;;19.25;13.35;;;;;;;;;;6268496;28;20132;-81
2023/04/02 18:18:25;;;;;;;20.05;15.05;;;;;;;;;;6251956;28;20044;-79
2023/04/02 18:21:28;;;;;;;19.20;14.90;;;;;;;;;;6272510;28;20021;-81
2023/04/02 18:24:41;;;;;;;17.98;14.25;;;;;;;;;;6271523;28;20029;-80
2023/04/02 18:27:48;;;;;;;22.27;17.15;;;;;;;;;;6263593;28;20021;-80
2023/04/02 18:30:53;;;;;;;15.23;11.88;;;;;;;;;;6267931;28;20025;-80
2023/04/02 18:34:06;;;;;;;18.58;13.88;;;;;;;;;;6271287;28;20451;-79